createdAt,value
2022-09-04T00:00:10.322Z,15.70
2022-09-04T00:03:05.732Z,15.58
2022-09-04T00:05:43.159Z,15.50
2022-09-04T00:11:14.180Z,15.77
2022-09-04T00:13:49.934Z,15.86
2022-09-04T00:16:24.156Z,15.81
2022-09-04T00:19:02.739Z,15.79
2022-09-04T00:21:38.468Z,15.65
2022-09-04T00:24:12.715Z,15.55
2022-09-04T00:26:54.550Z,15.60
2022-09-04T00:29:37.353Z,15.58
2022-09-04T00:32:18.925Z,15.63
2022-09-04T00:35:07.122Z,15.64
2022-09-04T00:37:43.053Z,15.69
2022-09-04T00:40:26.514Z,15.71
2022-09-04T00:43:53.520Z,15.73
2022-09-04T00:47:10.701Z,15.82
2022-09-04T00:50:07.728Z,15.74
2022-09-04T00:52:59.532Z,15.69
2022-09-04T00:55:59.890Z,15.62
2022-09-04T00:58:45.984Z,15.56
2022-09-04T01:01:23.499Z,15.60
2022-09-04T01:04:25.750Z,15.68
2022-09-04T01:07:24.062Z,15.52
2022-09-04T01:10:19.761Z,15.38
2022-09-04T01:12:58.431Z,15.32
2022-09-04T01:15:45.590Z,15.16
2022-09-04T01:18:23.440Z,15.05
2022-09-04T01:21:31.050Z,14.99
2022-09-04T01:24:35.813Z,14.94
2022-09-04T01:27:11.385Z,14.92
2022-09-04T01:29:54.196Z,14.95
2022-09-04T01:32:36.921Z,14.81
2022-09-04T01:35:21.912Z,14.77
2022-09-04T01:38:02.788Z,14.63
2022-09-04T01:40:42.242Z,14.59
2022-09-04T01:43:14.596Z,14.57
2022-09-04T01:46:05.405Z,14.57
2022-09-04T01:48:47.489Z,14.56
2022-09-04T01:51:28.040Z,14.57
2022-09-04T01:54:13.879Z,14.50
2022-09-04T01:56:53.097Z,14.69
2022-09-04T01:59:29.561Z,14.61
2022-09-04T02:02:05.800Z,14.51
2022-09-04T02:04:44.620Z,14.42
2022-09-04T02:07:23.867Z,14.32
2022-09-04T02:10:08.598Z,14.28
2022-09-04T02:12:51.243Z,14.24
2022-09-04T02:15:35.284Z,14.04
2022-09-04T02:18:15.036Z,13.93
2022-09-04T02:20:54.068Z,13.97
2022-09-04T02:23:36.091Z,13.88
2022-09-04T02:26:14.569Z,13.75
2022-09-04T02:28:58.625Z,13.62
2022-09-04T02:31:39.076Z,13.55
2022-09-04T02:34:15.100Z,13.56
2022-09-04T02:36:53.118Z,13.54
2022-09-04T02:39:38.610Z,13.61
2022-09-04T02:42:21.239Z,13.59
2022-09-04T02:45:02.275Z,13.49
2022-09-04T02:47:46.853Z,13.45
2022-09-04T02:50:39.254Z,13.59
2022-09-04T02:53:30.983Z,13.69
2022-09-04T02:56:17.101Z,13.80
2022-09-04T02:59:04.663Z,13.80
2022-09-04T03:01:41.052Z,13.78
2022-09-04T03:04:19.755Z,13.72
2022-09-04T03:06:55.049Z,13.71
2022-09-04T03:09:30.837Z,13.61
2022-09-04T03:12:07.100Z,13.58
2022-09-04T03:14:45.464Z,13.44
2022-09-04T03:17:27.022Z,13.36
2022-09-04T03:20:06.511Z,13.38
2022-09-04T03:22:44.606Z,13.42
2022-09-04T03:25:49.624Z,13.50
2022-09-04T03:28:31.208Z,13.54
2022-09-04T03:31:25.551Z,13.50
2022-09-04T03:34:21.336Z,13.47
2022-09-04T03:37:13.745Z,13.29
2022-09-04T03:39:57.174Z,13.36
2022-09-04T03:42:37.237Z,13.40
2022-09-04T03:45:22.630Z,13.42
2022-09-04T03:48:12.768Z,13.35
2022-09-04T03:50:55.340Z,13.39
2022-09-04T03:53:38.722Z,13.37
2022-09-04T03:56:31.489Z,13.42
2022-09-04T03:59:06.182Z,13.35
2022-09-04T04:01:48.492Z,13.26
2022-09-04T04:04:53.356Z,13.43
2022-09-04T04:07:38.381Z,13.53
2022-09-04T04:10:33.605Z,13.28
2022-09-04T04:16:17.856Z,13.22
2022-09-04T04:19:24.150Z,13.34
2022-09-04T04:22:11.888Z,13.37
2022-09-04T04:25:06.643Z,13.31
2022-09-04T04:27:54.468Z,13.41
2022-09-04T04:30:23.698Z,13.39
2022-09-04T04:33:25.948Z,13.33
2022-09-04T04:36:13.204Z,13.41
2022-09-04T04:39:15.564Z,13.33
2022-09-04T04:42:07.067Z,13.31
2022-09-04T04:45:25.819Z,13.45
2022-09-04T04:49:06.305Z,13.46
2022-09-04T04:52:00.100Z,13.46
2022-09-04T04:54:59.964Z,13.51
2022-09-04T04:57:37.679Z,13.58
2022-09-04T05:00:16.213Z,13.62
2022-09-04T05:03:01.987Z,13.64
2022-09-04T05:05:55.312Z,13.59
2022-09-04T05:08:36.349Z,13.60
2022-09-04T05:11:15.329Z,13.52
2022-09-04T05:13:58.525Z,13.49
2022-09-04T05:16:43.020Z,13.56
2022-09-04T05:19:22.876Z,13.57
2022-09-04T05:22:01.097Z,13.50
2022-09-04T05:24:37.818Z,13.58
2022-09-04T05:27:16.758Z,13.53
2022-09-04T05:29:53.887Z,13.52
2022-09-04T05:32:34.552Z,13.53
2022-09-04T05:35:14.369Z,13.75
2022-09-04T05:37:54.741Z,13.86
2022-09-04T05:40:32.190Z,14.06
2022-09-04T05:43:13.416Z,14.28
2022-09-04T05:45:59.528Z,14.45
2022-09-04T05:48:43.705Z,14.64
2022-09-04T05:51:54.487Z,14.79
2022-09-04T05:55:00.904Z,14.96
2022-09-04T05:57:47.704Z,15.19
2022-09-04T06:00:19.141Z,15.34
2022-09-04T06:03:17.642Z,15.36
2022-09-04T06:06:08.712Z,15.58
2022-09-04T06:09:02.243Z,15.68
2022-09-04T06:11:45.946Z,15.72
2022-09-04T06:14:35.260Z,15.85
2022-09-04T06:17:27.512Z,15.96
2022-09-04T06:20:14.539Z,16.10
2022-09-04T06:23:07.313Z,16.24
2022-09-04T06:26:08.648Z,16.34
2022-09-04T06:29:17.857Z,16.44
2022-09-04T06:32:26.202Z,16.70
2022-09-04T06:35:23.889Z,16.86
2022-09-04T06:38:08.906Z,17.10
2022-09-04T06:40:58.965Z,17.18
2022-09-04T06:43:38.099Z,17.34
2022-09-04T06:46:22.334Z,17.56
2022-09-04T06:49:03.049Z,17.61
2022-09-04T06:51:58.797Z,17.79
2022-09-04T06:54:47.265Z,18.01
2022-09-04T06:57:48.253Z,18.11
2022-09-04T07:00:20.040Z,18.31
2022-09-04T07:03:18.418Z,18.55
2022-09-04T07:05:59.802Z,18.77
2022-09-04T07:08:47.718Z,19.10
2022-09-04T07:11:29.754Z,19.35
2022-09-04T07:14:20.302Z,19.55
2022-09-04T07:17:07.384Z,19.83
2022-09-04T07:20:12.924Z,20.00
2022-09-04T07:23:27.076Z,20.14
2022-09-04T07:26:12.311Z,20.36
2022-09-04T07:29:08.916Z,20.18
2022-09-04T07:31:45.315Z,19.95
2022-09-04T07:34:26.182Z,20.10
2022-09-04T07:37:04.631Z,20.31
2022-09-04T07:39:45.569Z,20.39
2022-09-04T07:42:22.664Z,20.02
2022-09-04T07:45:03.289Z,20.34
2022-09-04T07:47:38.192Z,20.61
2022-09-04T07:50:11.700Z,20.91
2022-09-04T07:53:08.332Z,21.15
2022-09-04T07:55:42.025Z,21.40
2022-09-04T07:58:53.074Z,21.53
2022-09-04T08:01:52.417Z,21.47
2022-09-04T08:04:49.418Z,21.59
2022-09-04T08:07:28.928Z,21.78
2022-09-04T08:10:21.426Z,21.96
2022-09-04T08:13:25.389Z,22.00
2022-09-04T08:16:07.238Z,22.02
2022-09-04T08:19:01.613Z,22.07
2022-09-04T08:21:35.335Z,22.20
2022-09-04T08:24:57.037Z,22.34
2022-09-04T08:28:02.992Z,22.65
2022-09-04T08:30:47.713Z,23.02
2022-09-04T08:34:17.486Z,23.21
2022-09-04T08:36:59.613Z,22.61
2022-09-04T08:39:37.670Z,22.65
2022-09-04T08:42:54.174Z,22.94
2022-09-04T08:45:55.448Z,23.23
2022-09-04T08:49:10.544Z,23.31
2022-09-04T08:52:36.226Z,23.74
2022-09-04T08:55:51.753Z,24.16
2022-09-04T08:59:08.008Z,24.46
2022-09-04T09:02:28.519Z,24.52
2022-09-04T09:05:41.335Z,24.41
2022-09-04T09:09:19.765Z,24.50
2022-09-04T09:12:45.907Z,24.70
2022-09-04T09:15:52.988Z,24.81
2022-09-04T09:18:40.841Z,24.63
2022-09-04T09:21:13.743Z,24.53
2022-09-04T09:24:47.736Z,24.25
2022-09-04T09:28:01.832Z,24.34
2022-09-04T09:30:45.196Z,24.26
2022-09-04T09:34:15.419Z,23.93
2022-09-04T09:37:21.707Z,24.05
2022-09-04T09:40:31.845Z,24.14
2022-09-04T09:44:10.030Z,24.44
2022-09-04T09:47:25.669Z,24.71
2022-09-04T09:50:22.669Z,24.80
2022-09-04T09:53:46.997Z,24.91
2022-09-04T09:57:06.064Z,25.05
2022-09-04T10:00:05.984Z,25.09
2022-09-04T10:03:45.320Z,25.13
2022-09-04T10:06:44.785Z,25.39
2022-09-04T10:10:04.865Z,25.63
2022-09-04T10:13:26.817Z,25.84
2022-09-04T10:16:53.138Z,26.17
2022-09-04T10:20:06.173Z,26.02
2022-09-04T10:23:08.895Z,26.14
2022-09-04T10:26:50.709Z,26.51
2022-09-04T10:29:46.599Z,26.30
2022-09-04T10:33:07.957Z,26.21
2022-09-04T10:36:04.984Z,26.54
2022-09-04T10:39:02.565Z,27.10
2022-09-04T10:42:02.013Z,27.67
2022-09-04T10:44:56.548Z,28.20
2022-09-04T10:48:29.618Z,28.68
2022-09-04T10:51:21.016Z,28.51
2022-09-04T10:54:45.028Z,27.68
2022-09-04T10:57:39.276Z,28.29
2022-09-04T11:00:14.356Z,28.93
2022-09-04T11:03:28.205Z,28.96
2022-09-04T11:06:31.543Z,29.43
2022-09-04T11:09:34.078Z,29.09
2022-09-04T11:12:53.711Z,28.80
2022-09-04T11:16:09.998Z,28.80
2022-09-04T11:19:16.064Z,28.89
2022-09-04T11:22:15.115Z,28.69
2022-09-04T11:25:42.812Z,28.81
2022-09-04T11:28:52.196Z,29.25
2022-09-04T11:31:47.119Z,29.07
2022-09-04T11:35:14.259Z,29.41
2022-09-04T11:38:09.251Z,29.54
2022-09-04T11:41:29.106Z,29.52
2022-09-04T11:44:48.448Z,29.88
2022-09-04T11:48:07.085Z,28.87
2022-09-04T11:50:56.565Z,28.21
2022-09-04T11:53:52.968Z,28.13
2022-09-04T11:56:58.289Z,29.70
2022-09-04T12:00:03.607Z,30.53
2022-09-04T12:03:29.702Z,30.21
2022-09-04T12:06:14.947Z,30.03
2022-09-04T12:09:21.504Z,30.26
2022-09-04T12:12:43.110Z,29.73
2022-09-04T12:15:45.299Z,29.29
2022-09-04T12:19:23.221Z,29.36
2022-09-04T12:23:02.773Z,28.64
2022-09-04T12:26:21.687Z,27.90
2022-09-04T12:29:33.810Z,27.41
2022-09-04T12:33:18.636Z,26.95
2022-09-04T12:36:36.972Z,26.48
2022-09-04T12:39:48.033Z,26.98
2022-09-04T12:42:25.585Z,28.17
2022-09-04T12:45:11.132Z,29.02
2022-09-04T12:47:57.266Z,30.75
2022-09-04T12:50:44.391Z,33.78
2022-09-04T12:53:34.040Z,36.03
2022-09-04T12:56:12.126Z,38.06
2022-09-04T12:59:02.001Z,40.10
2022-09-04T13:01:46.355Z,40.00
2022-09-04T13:04:27.685Z,36.19
2022-09-04T13:07:16.677Z,33.46
2022-09-04T13:09:57.364Z,31.26
2022-09-04T13:12:42.352Z,29.45
2022-09-04T13:15:30.797Z,27.99
2022-09-04T13:18:18.191Z,26.69
2022-09-04T13:20:58.122Z,25.85
2022-09-04T13:23:46.845Z,25.23
2022-09-04T13:26:38.342Z,24.72
2022-09-04T13:29:35.927Z,24.22
2022-09-04T13:32:31.697Z,23.82
2022-09-04T13:35:19.236Z,23.26
2022-09-04T13:38:11.580Z,22.58
2022-09-04T13:41:31.012Z,21.65
2022-09-04T13:44:34.446Z,21.38
2022-09-04T13:47:08.339Z,20.86
2022-09-04T13:49:44.343Z,20.50
2022-09-04T13:52:19.443Z,19.93
2022-09-04T13:54:55.697Z,19.90
2022-09-04T13:57:30.355Z,20.11
2022-09-04T14:00:07.526Z,20.47
2022-09-04T14:02:39.241Z,20.58
2022-09-04T14:05:13.366Z,20.94
2022-09-04T14:07:46.151Z,21.02
2022-09-04T14:10:20.055Z,20.92
2022-09-04T14:13:12.449Z,21.34
2022-09-04T14:16:04.695Z,21.66
2022-09-04T14:19:00.185Z,22.24
2022-09-04T14:22:00.342Z,23.57
2022-09-04T14:24:42.158Z,25.05
2022-09-04T14:27:23.276Z,25.36
2022-09-04T14:30:06.130Z,24.16
2022-09-04T14:32:58.400Z,23.24
2022-09-04T14:35:37.607Z,22.38
2022-09-04T14:38:42.358Z,21.97
2022-09-04T14:41:37.148Z,21.54
2022-09-04T14:44:20.929Z,21.24
2022-09-04T14:47:03.543Z,20.95
2022-09-04T14:49:41.685Z,20.92
2022-09-04T14:52:21.683Z,20.67
2022-09-04T14:54:57.773Z,20.60
2022-09-04T14:57:34.633Z,20.54
2022-09-04T15:00:14.904Z,20.34
2022-09-04T15:02:48.601Z,20.23
2022-09-04T15:05:27.741Z,20.17
2022-09-04T15:08:01.086Z,20.15
2022-09-04T15:10:47.134Z,20.11
2022-09-04T15:13:48.773Z,19.99
2022-09-04T15:16:29.533Z,19.90
2022-09-04T15:19:09.921Z,19.86
2022-09-04T15:21:47.328Z,19.92
2022-09-04T15:24:26.486Z,19.93
2022-09-04T15:27:09.393Z,19.97
2022-09-04T15:29:47.950Z,19.96
2022-09-04T15:32:23.730Z,19.89
2022-09-04T15:35:12.724Z,19.86
2022-09-04T15:37:48.385Z,19.88
2022-09-04T15:40:32.912Z,19.94
2022-09-04T15:43:14.045Z,20.03
2022-09-04T15:45:48.265Z,20.11
2022-09-04T15:48:43.965Z,20.36
2022-09-04T15:51:24.602Z,20.36
2022-09-04T15:54:21.202Z,20.46
2022-09-04T15:57:03.268Z,20.75
2022-09-04T15:59:50.279Z,21.32
2022-09-04T16:02:37.394Z,25.12
2022-09-04T16:05:24.107Z,29.33
2022-09-04T16:08:05.432Z,31.33
2022-09-04T16:11:00.436Z,32.59
2022-09-04T16:13:45.337Z,33.26
2022-09-04T16:16:29.802Z,32.81
2022-09-04T16:19:21.985Z,32.92
2022-09-04T16:22:07.693Z,32.86
2022-09-04T16:24:44.816Z,32.61
2022-09-04T16:27:21.286Z,31.60
2022-09-04T16:29:59.073Z,31.43
2022-09-04T16:32:32.170Z,31.19
2022-09-04T16:35:06.102Z,30.86
2022-09-04T16:37:42.588Z,31.68
2022-09-04T16:40:28.433Z,32.73
2022-09-04T16:43:12.069Z,32.95
2022-09-04T16:45:50.092Z,32.03
2022-09-04T16:48:33.892Z,31.75
2022-09-04T16:51:39.725Z,32.08
2022-09-04T16:54:08.912Z,32.00
2022-09-04T16:56:42.944Z,31.17
2022-09-04T16:59:30.160Z,29.69
2022-09-04T17:02:03.708Z,26.99
2022-09-04T17:04:40.261Z,24.98
2022-09-04T17:07:20.412Z,23.69
2022-09-04T17:10:01.884Z,22.82
2022-09-04T17:12:52.879Z,22.01
2022-09-04T17:15:33.963Z,21.47
2022-09-04T17:18:08.479Z,21.00
2022-09-04T17:23:25.951Z,20.87
2022-09-04T17:29:11.312Z,20.65
2022-09-04T17:29:16.666Z,20.85
2022-09-04T17:29:43.117Z,20.51
2022-09-04T17:35:34.106Z,20.39
2022-09-04T17:40:34.822Z,20.21
2022-09-04T17:40:54.772Z,20.10
2022-09-04T17:41:31.225Z,19.87
2022-09-04T17:44:31.936Z,19.79
2022-09-04T17:47:18.380Z,19.64
2022-09-04T17:49:53.745Z,19.59
2022-09-04T17:52:28.723Z,19.48
2022-09-04T17:55:03.970Z,19.41
2022-09-04T17:57:53.749Z,19.40
2022-09-04T18:00:26.293Z,19.55
2022-09-04T18:03:03.901Z,19.50
2022-09-04T18:05:49.162Z,19.39
2022-09-04T18:08:32.600Z,19.40
2022-09-04T18:11:13.894Z,19.29
2022-09-04T18:13:54.702Z,19.15
2022-09-04T18:17:11.495Z,19.03
2022-09-04T18:19:47.686Z,18.85
2022-09-04T18:22:33.470Z,18.84
2022-09-04T18:25:17.060Z,18.81
2022-09-04T18:28:06.483Z,18.68
2022-09-04T18:36:39.346Z,18.67
2022-09-04T18:37:21.502Z,18.67
2022-09-04T18:37:26.560Z,18.65
2022-09-04T18:40:08.659Z,18.61
2022-09-04T18:50:26.019Z,18.69
2022-09-04T18:50:39.645Z,18.66
2022-09-04T18:50:45.239Z,18.75
2022-09-04T18:51:31.057Z,18.54
2022-09-04T18:54:09.532Z,18.56
2022-09-04T18:56:46.218Z,18.56
2022-09-04T18:59:21.014Z,18.55
2022-09-04T19:02:00.974Z,18.45
2022-09-04T19:04:48.919Z,18.35
2022-09-04T19:07:30.078Z,18.19
2022-09-04T19:10:11.851Z,18.15
2022-09-04T19:12:56.276Z,18.10
2022-09-04T19:16:05.576Z,17.99
2022-09-04T19:18:48.793Z,17.92
2022-09-04T19:21:39.822Z,17.82
2022-09-04T19:24:28.676Z,17.75
2022-09-04T19:27:29.018Z,17.66
2022-09-04T19:30:18.681Z,17.70
2022-09-04T19:33:06.050Z,17.87
2022-09-04T19:35:45.012Z,17.95
2022-09-04T19:43:51.236Z,17.82
2022-09-04T19:46:08.362Z,17.63
2022-09-04T19:46:15.177Z,17.37
2022-09-04T19:47:29.750Z,17.29
2022-09-04T19:52:28.263Z,17.18
2022-09-04T19:53:37.680Z,17.07
2022-09-04T19:56:23.299Z,17.12
2022-09-04T19:58:58.981Z,17.01
2022-09-04T20:01:39.721Z,17.07
2022-09-04T20:04:27.042Z,17.29
2022-09-04T20:07:02.785Z,17.23
2022-09-04T20:09:38.339Z,17.12
2022-09-04T20:12:20.798Z,17.08
2022-09-04T20:14:57.120Z,17.05
2022-09-04T20:17:46.915Z,17.24
2022-09-04T20:20:23.284Z,17.28
2022-09-04T20:23:00.110Z,17.07
2022-09-04T20:25:46.510Z,16.91
2022-09-04T20:28:24.693Z,16.85
2022-09-04T20:31:35.569Z,16.93
2022-09-04T20:34:17.067Z,16.93
2022-09-04T20:36:52.576Z,17.02
2022-09-04T20:39:29.022Z,17.19
2022-09-04T20:42:05.228Z,17.18
2022-09-04T20:44:51.178Z,17.09
2022-09-04T20:52:50.396Z,16.97
2022-09-04T20:52:53.415Z,16.78
2022-09-04T20:53:37.159Z,16.83
2022-09-04T20:57:07.574Z,16.75
2022-09-04T21:03:09.576Z,16.63
2022-09-04T21:03:19.610Z,16.63
2022-09-04T21:06:06.082Z,16.58
2022-09-04T21:08:51.715Z,16.52
2022-09-04T21:11:40.879Z,16.47
2022-09-04T21:14:22.453Z,16.48
2022-09-04T21:17:27.567Z,16.37
2022-09-04T21:20:59.812Z,16.30
2022-09-04T21:24:17.003Z,16.26
2022-09-04T21:27:27.357Z,16.32
2022-09-04T21:30:06.480Z,16.27
2022-09-04T21:33:27.751Z,16.23
2022-09-04T21:36:26.760Z,16.23
2022-09-04T21:39:39.349Z,16.26
2022-09-04T21:42:50.958Z,16.26
2022-09-04T21:45:48.098Z,16.16
2022-09-04T21:48:43.739Z,16.10
2022-09-04T21:51:49.267Z,16.11
2022-09-04T21:59:49.287Z,16.08
2022-09-04T22:02:32.046Z,16.23
2022-09-04T22:02:40.458Z,16.16
2022-09-04T22:04:44.778Z,16.08
2022-09-04T22:09:54.173Z,15.99
2022-09-04T22:13:29.338Z,15.90
2022-09-04T22:13:53.115Z,16.03
2022-09-04T22:16:58.734Z,15.92
2022-09-04T22:20:13.004Z,15.83
2022-09-04T22:23:20.303Z,15.82
2022-09-04T22:26:23.964Z,15.79
2022-09-04T22:29:37.566Z,15.74
2022-09-04T22:33:05.683Z,15.72
2022-09-04T22:36:17.309Z,15.62
2022-09-04T22:39:44.497Z,15.52
2022-09-04T22:42:45.026Z,15.53
2022-09-04T22:45:49.225Z,15.63
2022-09-04T22:48:47.231Z,15.69
2022-09-04T22:51:35.916Z,15.62
2022-09-04T22:54:37.473Z,15.59
2022-09-04T22:57:12.172Z,15.57
2022-09-04T23:00:11.725Z,15.48
2022-09-04T23:03:26.172Z,15.42
2022-09-04T23:09:13.744Z,15.33
2022-09-04T23:13:49.833Z,15.45
2022-09-04T23:14:01.163Z,15.49
2022-09-04T23:17:11.711Z,15.36
2022-09-04T23:26:33.064Z,15.28
2022-09-04T23:26:57.302Z,15.29
2022-09-04T23:27:43.512Z,15.16
2022-09-04T23:30:26.446Z,15.10
2022-09-04T23:33:42.628Z,15.26
2022-09-04T23:37:01.297Z,15.09
2022-09-04T23:39:49.852Z,14.94
2022-09-04T23:42:47.506Z,14.94
2022-09-04T23:46:01.377Z,15.03
2022-09-04T23:49:05.490Z,14.90
2022-09-04T23:51:46.758Z,14.82
2022-09-04T23:54:46.936Z,14.70
2022-09-04T23:57:26.657Z,14.80
